< < Back
Terminal Aerodrome Forecast


Current Version              Previous Versions:   1  2  3  4  5  6  7  8  9  

Terminal Aerodrome Forecast

677
FTUS42 KCAE 202000 AAA
TAFCAE
TAF AMD
KCAE 202022Z 2020/2118 22007KT P6SM FEW060 FEW250
     FM210000 VRB03KT P6SM SKC
     FM211500 28005KT P6SM SKC=

Latest METAR

143
SAUS80 KWBC 211700
MTRCAE
METAR KCAE 211656Z VRB04KT 10SM CLR 24/08 A2993 RMK AO2 SLP131
T02390083


USA.gov is the U.S. government's official web portal to all federal, state and local government web resources and services.